sensor_id;sensor_type;location;lat;lon;timestamp;P1;durP1;ratioP1;P2;durP2;ratioP2
4122;SDS011;2075;51.062;6.920;2023-06-19T00:02:18;6.20;;;5.60;;
4122;SDS011;2075;51.062;6.920;2023-06-19T00:05:04;7.80;;;6.63;;
4122;SDS011;2075;51.062;6.920;2023-06-19T00:07:50;6.93;;;5.80;;
4122;SDS011;2075;51.062;6.920;2023-06-19T00:10:36;7.07;;;6.37;;
4122;SDS011;2075;51.062;6.920;2023-06-19T00:13:23;7.43;;;6.50;;
4122;SDS011;2075;51.062;6.920;2023-06-19T00:16:10;7.00;;;6.50;;
4122;SDS011;2075;51.062;6.920;2023-06-19T00:18:55;7.50;;;6.33;;
4122;SDS011;2075;51.062;6.920;2023-06-19T00:21:41;7.33;;;6.63;;
4122;SDS011;2075;51.062;6.920;2023-06-19T00:24:27;6.70;;;6.10;;
4122;SDS011;2075;51.062;6.920;2023-06-19T00:27:13;9.63;;;5.93;;
4122;SDS011;2075;51.062;6.920;2023-06-19T00:29:59;7.80;;;6.43;;
4122;SDS011;2075;51.062;6.920;2023-06-19T00:32:48;8.30;;;6.87;;
4122;SDS011;2075;51.062;6.920;2023-06-19T00:35:37;6.00;;;5.50;;
4122;SDS011;2075;51.062;6.920;2023-06-19T00:38:23;7.40;;;5.97;;
4122;SDS011;2075;51.062;6.920;2023-06-19T00:41:09;7.40;;;5.67;;
4122;SDS011;2075;51.062;6.920;2023-06-19T00:43:55;6.40;;;5.57;;
4122;SDS011;2075;51.062;6.920;2023-06-19T00:46:40;12.23;;;6.23;;
4122;SDS011;2075;51.062;6.920;2023-06-19T00:49:28;7.13;;;6.43;;
4122;SDS011;2075;51.062;6.920;2023-06-19T00:52:15;7.63;;;6.20;;
4122;SDS011;2075;51.062;6.920;2023-06-19T00:55:01;11.20;;;6.93;;
4122;SDS011;2075;51.062;6.920;2023-06-19T00:57:47;7.53;;;6.80;;
4122;SDS011;2075;51.062;6.920;2023-06-19T01:00:35;7.67;;;6.90;;
4122;SDS011;2075;51.062;6.920;2023-06-19T01:03:21;8.10;;;6.70;;
4122;SDS011;2075;51.062;6.920;2023-06-19T01:06:09;7.57;;;6.40;;
4122;SDS011;2075;51.062;6.920;2023-06-19T01:09:01;7.20;;;6.50;;
4122;SDS011;2075;51.062;6.920;2023-06-19T01:11:52;8.47;;;6.27;;
4122;SDS011;2075;51.062;6.920;2023-06-19T01:14:43;7.77;;;6.60;;
4122;SDS011;2075;51.062;6.920;2023-06-19T01:17:35;7.57;;;6.60;;
4122;SDS011;2075;51.062;6.920;2023-06-19T01:20:20;7.40;;;6.63;;
4122;SDS011;2075;51.062;6.920;2023-06-19T01:23:08;7.73;;;6.93;;
4122;SDS011;2075;51.062;6.920;2023-06-19T01:25:54;9.87;;;6.17;;
4122;SDS011;2075;51.062;6.920;2023-06-19T01:28:41;7.13;;;6.53;;
4122;SDS011;2075;51.062;6.920;2023-06-19T01:31:28;7.33;;;6.40;;
4122;SDS011;2075;51.062;6.920;2023-06-19T01:34:18;7.60;;;6.70;;
4122;SDS011;2075;51.062;6.920;2023-06-19T01:37:05;8.43;;;7.00;;
4122;SDS011;2075;51.062;6.920;2023-06-19T01:39:56;7.50;;;6.90;;
4122;SDS011;2075;51.062;6.920;2023-06-19T01:42:42;7.70;;;7.00;;
4122;SDS011;2075;51.062;6.920;2023-06-19T01:45:28;7.73;;;7.00;;
4122;SDS011;2075;51.062;6.920;2023-06-19T01:48:14;7.70;;;6.90;;
4122;SDS011;2075;51.062;6.920;2023-06-19T01:51:00;8.77;;;6.83;;
4122;SDS011;2075;51.062;6.920;2023-06-19T01:53:50;8.27;;;7.50;;
4122;SDS011;2075;51.062;6.920;2023-06-19T01:56:37;7.43;;;6.77;;
4122;SDS011;2075;51.062;6.920;2023-06-19T01:59:23;8.47;;;7.60;;
4122;SDS011;2075;51.062;6.920;2023-06-19T02:02:11;8.30;;;7.50;;
4122;SDS011;2075;51.062;6.920;2023-06-19T02:04:57;7.53;;;6.93;;
4122;SDS011;2075;51.062;6.920;2023-06-19T02:07:43;9.73;;;8.07;;
4122;SDS011;2075;51.062;6.920;2023-06-19T02:10:29;8.67;;;7.87;;
4122;SDS011;2075;51.062;6.920;2023-06-19T02:13:16;7.77;;;7.00;;
4122;SDS011;2075;51.062;6.920;2023-06-19T02:16:02;8.10;;;7.40;;
4122;SDS011;2075;51.062;6.920;2023-06-19T02:18:48;9.93;;;7.40;;
4122;SDS011;2075;51.062;6.920;2023-06-19T02:21:33;10.50;;;7.70;;
4122;SDS011;2075;51.062;6.920;2023-06-19T02:24:19;8.40;;;7.60;;
4122;SDS011;2075;51.062;6.920;2023-06-19T02:27:04;8.73;;;7.90;;
4122;SDS011;2075;51.062;6.920;2023-06-19T02:29:52;10.50;;;7.63;;
4122;SDS011;2075;51.062;6.920;2023-06-19T02:32:37;8.20;;;7.50;;
4122;SDS011;2075;51.062;6.920;2023-06-19T02:35:23;7.93;;;7.20;;
4122;SDS011;2075;51.062;6.920;2023-06-19T02:38:08;9.33;;;8.43;;
4122;SDS011;2075;51.062;6.920;2023-06-19T02:40:55;8.73;;;7.83;;
4122;SDS011;2075;51.062;6.920;2023-06-19T02:43:44;8.00;;;7.30;;
4122;SDS011;2075;51.062;6.920;2023-06-19T02:46:32;8.47;;;7.63;;
4122;SDS011;2075;51.062;6.920;2023-06-19T02:49:17;8.60;;;7.80;;
4122;SDS011;2075;51.062;6.920;2023-06-19T02:52:06;9.17;;;7.27;;
4122;SDS011;2075;51.062;6.920;2023-06-19T02:54:54;8.20;;;7.40;;
4122;SDS011;2075;51.062;6.920;2023-06-19T02:57:40;10.90;;;8.20;;
4122;SDS011;2075;51.062;6.920;2023-06-19T03:00:27;8.87;;;8.07;;
4122;SDS011;2075;51.062;6.920;2023-06-19T03:03:18;8.07;;;7.27;;
4122;SDS011;2075;51.062;6.920;2023-06-19T03:06:04;9.90;;;7.57;;
4122;SDS011;2075;51.062;6.920;2023-06-19T03:08:51;9.80;;;7.67;;
4122;SDS011;2075;51.062;6.920;2023-06-19T03:11:37;8.47;;;7.73;;
4122;SDS011;2075;51.062;6.920;2023-06-19T03:14:29;7.80;;;7.10;;
4122;SDS011;2075;51.062;6.920;2023-06-19T03:17:18;7.20;;;6.50;;
4122;SDS011;2075;51.062;6.920;2023-06-19T03:20:07;8.10;;;7.30;;
4122;SDS011;2075;51.062;6.920;2023-06-19T03:23:01;8.13;;;7.33;;
4122;SDS011;2075;51.062;6.920;2023-06-19T03:25:50;7.00;;;6.30;;
4122;SDS011;2075;51.062;6.920;2023-06-19T03:28:37;6.63;;;5.50;;
4122;SDS011;2075;51.062;6.920;2023-06-19T03:31:25;6.00;;;5.53;;
4122;SDS011;2075;51.062;6.920;2023-06-19T03:34:11;8.77;;;6.10;;
4122;SDS011;2075;51.062;6.920;2023-06-19T03:36:59;7.33;;;5.50;;
4122;SDS011;2075;51.062;6.920;2023-06-19T03:39:44;6.60;;;5.90;;
4122;SDS011;2075;51.062;6.920;2023-06-19T03:42:30;6.30;;;5.80;;
4122;SDS011;2075;51.062;6.920;2023-06-19T03:45:16;9.87;;;7.63;;
4122;SDS011;2075;51.062;6.920;2023-06-19T03:48:03;6.63;;;6.03;;
4122;SDS011;2075;51.062;6.920;2023-06-19T03:50:49;6.10;;;5.50;;
4122;SDS011;2075;51.062;6.920;2023-06-19T03:53:36;5.67;;;5.17;;
4122;SDS011;2075;51.062;6.920;2023-06-19T03:56:22;5.50;;;5.00;;
4122;SDS011;2075;51.062;6.920;2023-06-19T03:59:07;6.00;;;5.40;;
4122;SDS011;2075;51.062;6.920;2023-06-19T04:01:53;7.13;;;5.40;;
4122;SDS011;2075;51.062;6.920;2023-06-19T04:04:38;6.73;;;4.70;;
4122;SDS011;2075;51.062;6.920;2023-06-19T04:07:24;4.37;;;4.00;;
4122;SDS011;2075;51.062;6.920;2023-06-19T04:10:10;4.60;;;4.20;;
4122;SDS011;2075;51.062;6.920;2023-06-19T04:12:56;4.60;;;4.20;;
4122;SDS011;2075;51.062;6.920;2023-06-19T04:15:41;15.23;;;11.23;;
4122;SDS011;2075;51.062;6.920;2023-06-19T04:18:28;5.30;;;4.80;;
4122;SDS011;2075;51.062;6.920;2023-06-19T04:21:14;5.10;;;4.30;;
4122;SDS011;2075;51.062;6.920;2023-06-19T04:24:00;4.33;;;3.93;;
4122;SDS011;2075;51.062;6.920;2023-06-19T04:26:51;5.90;;;3.90;;
4122;SDS011;2075;51.062;6.920;2023-06-19T04:29:36;5.83;;;3.40;;
4122;SDS011;2075;51.062;6.920;2023-06-19T04:32:21;4.03;;;3.73;;
4122;SDS011;2075;51.062;6.920;2023-06-19T04:35:07;4.87;;;3.60;;
4122;SDS011;2075;51.062;6.920;2023-06-19T04:37:53;3.80;;;3.50;;
4122;SDS011;2075;51.062;6.920;2023-06-19T04:40:39;3.33;;;3.13;;
4122;SDS011;2075;51.062;6.920;2023-06-19T04:43:28;3.80;;;3.50;;
4122;SDS011;2075;51.062;6.920;2023-06-19T04:46:13;8.17;;;3.53;;
4122;SDS011;2075;51.062;6.920;2023-06-19T04:49:04;3.60;;;3.30;;
4122;SDS011;2075;51.062;6.920;2023-06-19T04:51:49;5.23;;;3.17;;
4122;SDS011;2075;51.062;6.920;2023-06-19T04:54:34;3.37;;;3.07;;
4122;SDS011;2075;51.062;6.920;2023-06-19T04:57:20;5.13;;;3.83;;
4122;SDS011;2075;51.062;6.920;2023-06-19T05:00:08;8.07;;;2.97;;
4122;SDS011;2075;51.062;6.920;2023-06-19T05:02:55;4.10;;;3.80;;
4122;SDS011;2075;51.062;6.920;2023-06-19T05:05:44;3.53;;;3.23;;
4122;SDS011;2075;51.062;6.920;2023-06-19T05:08:30;3.60;;;3.40;;
4122;SDS011;2075;51.062;6.920;2023-06-19T05:11:15;3.10;;;2.90;;
4122;SDS011;2075;51.062;6.920;2023-06-19T05:14:01;3.40;;;3.10;;
4122;SDS011;2075;51.062;6.920;2023-06-19T05:16:47;3.30;;;3.10;;
4122;SDS011;2075;51.062;6.920;2023-06-19T05:19:33;3.43;;;3.13;;
4122;SDS011;2075;51.062;6.920;2023-06-19T05:22:18;3.90;;;3.60;;
4122;SDS011;2075;51.062;6.920;2023-06-19T05:25:05;3.00;;;2.70;;
4122;SDS011;2075;51.062;6.920;2023-06-19T05:27:51;3.00;;;2.80;;
4122;SDS011;2075;51.062;6.920;2023-06-19T05:30:37;3.40;;;3.20;;
4122;SDS011;2075;51.062;6.920;2023-06-19T05:33:24;7.20;;;3.30;;
4122;SDS011;2075;51.062;6.920;2023-06-19T05:36:09;4.43;;;3.23;;
4122;SDS011;2075;51.062;6.920;2023-06-19T05:38:55;3.40;;;3.10;;
4122;SDS011;2075;51.062;6.920;2023-06-19T05:41:40;3.00;;;2.80;;
4122;SDS011;2075;51.062;6.920;2023-06-19T05:44:29;2.40;;;2.30;;
4122;SDS011;2075;51.062;6.920;2023-06-19T05:47:15;2.63;;;2.53;;
4122;SDS011;2075;51.062;6.920;2023-06-19T05:52:51;2.67;;;2.57;;
4122;SDS011;2075;51.062;6.920;2023-06-19T05:55:43;2.53;;;2.43;;
4122;SDS011;2075;51.062;6.920;2023-06-19T05:58:28;2.30;;;1.90;;
4122;SDS011;2075;51.062;6.920;2023-06-19T06:01:14;2.10;;;1.90;;
4122;SDS011;2075;51.062;6.920;2023-06-19T06:04:01;2.30;;;2.20;;
4122;SDS011;2075;51.062;6.920;2023-06-19T06:06:47;2.43;;;2.33;;
4122;SDS011;2075;51.062;6.920;2023-06-19T06:09:35;1.90;;;1.80;;
4122;SDS011;2075;51.062;6.920;2023-06-19T06:12:22;2.03;;;1.93;;
4122;SDS011;2075;51.062;6.920;2023-06-19T06:15:08;2.10;;;2.00;;
4122;SDS011;2075;51.062;6.920;2023-06-19T06:17:55;2.33;;;2.23;;
4122;SDS011;2075;51.062;6.920;2023-06-19T06:20:40;2.27;;;2.07;;
4122;SDS011;2075;51.062;6.920;2023-06-19T06:23:26;2.40;;;2.27;;
4122;SDS011;2075;51.062;6.920;2023-06-19T06:26:16;2.90;;;2.10;;
4122;SDS011;2075;51.062;6.920;2023-06-19T06:29:07;2.37;;;2.03;;
4122;SDS011;2075;51.062;6.920;2023-06-19T06:32:02;2.23;;;2.03;;
4122;SDS011;2075;51.062;6.920;2023-06-19T06:34:51;2.40;;;2.20;;
4122;SDS011;2075;51.062;6.920;2023-06-19T06:37:40;6.50;;;3.77;;
4122;SDS011;2075;51.062;6.920;2023-06-19T06:40:22;2.30;;;2.20;;
4122;SDS011;2075;51.062;6.920;2023-06-19T06:43:10;2.10;;;2.00;;
4122;SDS011;2075;51.062;6.920;2023-06-19T06:46:19;1.70;;;1.70;;
4122;SDS011;2075;51.062;6.920;2023-06-19T06:49:11;2.00;;;1.90;;
4122;SDS011;2075;51.062;6.920;2023-06-19T06:52:12;3.30;;;3.17;;
4122;SDS011;2075;51.062;6.920;2023-06-19T06:55:04;3.80;;;3.50;;
4122;SDS011;2075;51.062;6.920;2023-06-19T06:57:51;1.93;;;1.93;;
4122;SDS011;2075;51.062;6.920;2023-06-19T07:00:39;1.80;;;1.70;;
4122;SDS011;2075;51.062;6.920;2023-06-19T07:03:28;8.27;;;1.70;;
4122;SDS011;2075;51.062;6.920;2023-06-19T07:06:16;2.17;;;1.97;;
4122;SDS011;2075;51.062;6.920;2023-06-19T07:09:03;2.50;;;2.27;;
4122;SDS011;2075;51.062;6.920;2023-06-19T07:11:49;2.13;;;2.03;;
4122;SDS011;2075;51.062;6.920;2023-06-19T07:14:35;2.50;;;2.07;;
4122;SDS011;2075;51.062;6.920;2023-06-19T07:17:25;2.10;;;2.00;;
4122;SDS011;2075;51.062;6.920;2023-06-19T07:20:11;2.50;;;2.10;;
4122;SDS011;2075;51.062;6.920;2023-06-19T07:22:57;6.37;;;1.93;;
4122;SDS011;2075;51.062;6.920;2023-06-19T07:25:45;2.30;;;2.10;;
4122;SDS011;2075;51.062;6.920;2023-06-19T07:28:32;1.87;;;1.77;;
4122;SDS011;2075;51.062;6.920;2023-06-19T07:31:20;2.80;;;2.20;;
4122;SDS011;2075;51.062;6.920;2023-06-19T07:34:12;2.77;;;2.57;;
4122;SDS011;2075;51.062;6.920;2023-06-19T07:36:58;2.20;;;2.00;;
4122;SDS011;2075;51.062;6.920;2023-06-19T07:39:49;2.20;;;2.10;;
4122;SDS011;2075;51.062;6.920;2023-06-19T07:42:38;2.40;;;2.30;;
4122;SDS011;2075;51.062;6.920;2023-06-19T07:45:30;2.10;;;2.00;;
4122;SDS011;2075;51.062;6.920;2023-06-19T07:48:18;2.17;;;2.07;;
4122;SDS011;2075;51.062;6.920;2023-06-19T07:51:10;2.60;;;2.40;;
4122;SDS011;2075;51.062;6.920;2023-06-19T07:54:08;5.03;;;2.60;;
4122;SDS011;2075;51.062;6.920;2023-06-19T07:56:55;3.07;;;2.10;;
4122;SDS011;2075;51.062;6.920;2023-06-19T07:59:43;2.47;;;2.37;;
4122;SDS011;2075;51.062;6.920;2023-06-19T08:02:29;2.30;;;2.10;;
4122;SDS011;2075;51.062;6.920;2023-06-19T08:05:14;2.37;;;2.17;;
4122;SDS011;2075;51.062;6.920;2023-06-19T08:08:01;2.20;;;2.10;;
4122;SDS011;2075;51.062;6.920;2023-06-19T08:10:47;4.20;;;2.20;;
4122;SDS011;2075;51.062;6.920;2023-06-19T08:13:32;3.80;;;2.60;;
4122;SDS011;2075;51.062;6.920;2023-06-19T08:16:18;2.90;;;2.70;;
4122;SDS011;2075;51.062;6.920;2023-06-19T08:19:09;4.13;;;3.57;;
4122;SDS011;2075;51.062;6.920;2023-06-19T08:21:55;5.83;;;3.10;;
4122;SDS011;2075;51.062;6.920;2023-06-19T08:24:42;3.70;;;3.50;;
4122;SDS011;2075;51.062;6.920;2023-06-19T08:27:27;8.53;;;7.87;;
4122;SDS011;2075;51.062;6.920;2023-06-19T08:30:13;2.70;;;2.50;;
4122;SDS011;2075;51.062;6.920;2023-06-19T08:32:59;2.60;;;2.40;;
4122;SDS011;2075;51.062;6.920;2023-06-19T08:35:45;2.20;;;2.10;;
4122;SDS011;2075;51.062;6.920;2023-06-19T08:38:32;2.15;;;2.05;;
4122;SDS011;2075;51.062;6.920;2023-06-19T08:41:19;2.13;;;1.98;;
4122;SDS011;2075;51.062;6.920;2023-06-19T08:44:04;2.40;;;2.25;;
4122;SDS011;2075;51.062;6.920;2023-06-19T08:46:51;2.45;;;2.00;;
4122;SDS011;2075;51.062;6.920;2023-06-19T08:49:36;1.92;;;1.83;;
4122;SDS011;2075;51.062;6.920;2023-06-19T08:52:22;1.98;;;1.92;;
4122;SDS011;2075;51.062;6.920;2023-06-19T08:55:10;1.80;;;1.80;;
4122;SDS011;2075;51.062;6.920;2023-06-19T08:57:57;2.20;;;2.10;;
4122;SDS011;2075;51.062;6.920;2023-06-19T09:00:47;2.55;;;2.45;;
4122;SDS011;2075;51.062;6.920;2023-06-19T09:03:33;2.63;;;2.42;;
4122;SDS011;2075;51.062;6.920;2023-06-19T09:06:18;2.97;;;2.60;;
4122;SDS011;2075;51.062;6.920;2023-06-19T09:09:10;3.40;;;3.00;;
4122;SDS011;2075;51.062;6.920;2023-06-19T09:12:13;2.90;;;2.80;;
4122;SDS011;2075;51.062;6.920;2023-06-19T09:15:16;3.00;;;2.80;;
4122;SDS011;2075;51.062;6.920;2023-06-19T09:18:09;3.37;;;3.07;;
4122;SDS011;2075;51.062;6.920;2023-06-19T09:20:56;4.50;;;3.93;;
4122;SDS011;2075;51.062;6.920;2023-06-19T09:23:42;4.03;;;3.73;;
4122;SDS011;2075;51.062;6.920;2023-06-19T09:26:29;6.10;;;5.70;;
4122;SDS011;2075;51.062;6.920;2023-06-19T09:29:14;4.90;;;3.30;;
4122;SDS011;2075;51.062;6.920;2023-06-19T09:32:03;5.60;;;4.17;;
4122;SDS011;2075;51.062;6.920;2023-06-19T09:35:04;3.37;;;3.17;;
4122;SDS011;2075;51.062;6.920;2023-06-19T09:38:08;3.90;;;3.60;;
4122;SDS011;2075;51.062;6.920;2023-06-19T09:40:55;3.50;;;3.30;;
4122;SDS011;2075;51.062;6.920;2023-06-19T09:44:04;3.80;;;3.60;;
4122;SDS011;2075;51.062;6.920;2023-06-19T09:46:59;3.70;;;3.50;;
4122;SDS011;2075;51.062;6.920;2023-06-19T09:49:56;5.20;;;4.13;;
4122;SDS011;2075;51.062;6.920;2023-06-19T09:52:43;4.37;;;3.47;;
4122;SDS011;2075;51.062;6.920;2023-06-19T09:55:32;4.33;;;3.90;;
4122;SDS011;2075;51.062;6.920;2023-06-19T09:58:22;4.10;;;3.80;;
4122;SDS011;2075;51.062;6.920;2023-06-19T10:01:11;7.27;;;4.00;;
4122;SDS011;2075;51.062;6.920;2023-06-19T10:04:06;7.80;;;4.23;;
4122;SDS011;2075;51.062;6.920;2023-06-19T10:06:54;4.97;;;4.00;;
4122;SDS011;2075;51.062;6.920;2023-06-19T10:10:00;4.23;;;3.80;;
4122;SDS011;2075;51.062;6.920;2023-06-19T10:12:57;7.00;;;4.10;;
4122;SDS011;2075;51.062;6.920;2023-06-19T10:15:44;5.77;;;4.80;;
4122;SDS011;2075;51.062;6.920;2023-06-19T10:18:31;12.07;;;4.00;;
4122;SDS011;2075;51.062;6.920;2023-06-19T10:21:18;4.07;;;3.83;;
4122;SDS011;2075;51.062;6.920;2023-06-19T10:24:13;4.73;;;3.70;;
4122;SDS011;2075;51.062;6.920;2023-06-19T10:27:08;4.23;;;3.73;;
4122;SDS011;2075;51.062;6.920;2023-06-19T10:29:59;6.10;;;4.07;;
4122;SDS011;2075;51.062;6.920;2023-06-19T10:32:46;4.47;;;4.00;;
4122;SDS011;2075;51.062;6.920;2023-06-19T10:35:37;4.13;;;3.53;;
4122;SDS011;2075;51.062;6.920;2023-06-19T10:38:27;4.50;;;4.20;;
4122;SDS011;2075;51.062;6.920;2023-06-19T10:41:22;6.27;;;4.40;;
4122;SDS011;2075;51.062;6.920;2023-06-19T10:44:11;4.13;;;3.73;;
4122;SDS011;2075;51.062;6.920;2023-06-19T10:47:05;5.30;;;4.10;;
4122;SDS011;2075;51.062;6.920;2023-06-19T10:49:54;5.63;;;4.87;;
4122;SDS011;2075;51.062;6.920;2023-06-19T10:52:46;4.77;;;4.00;;
4122;SDS011;2075;51.062;6.920;2023-06-19T10:55:33;5.70;;;3.90;;
4122;SDS011;2075;51.062;6.920;2023-06-19T10:58:27;4.93;;;3.63;;
4122;SDS011;2075;51.062;6.920;2023-06-19T11:01:15;4.30;;;3.90;;
4122;SDS011;2075;51.062;6.920;2023-06-19T11:04:04;7.40;;;4.00;;
4122;SDS011;2075;51.062;6.920;2023-06-19T11:06:51;4.50;;;4.20;;
4122;SDS011;2075;51.062;6.920;2023-06-19T11:09:37;4.80;;;4.40;;
4122;SDS011;2075;51.062;6.920;2023-06-19T11:12:23;4.70;;;4.30;;
4122;SDS011;2075;51.062;6.920;2023-06-19T11:15:12;4.23;;;3.83;;
4122;SDS011;2075;51.062;6.920;2023-06-19T11:17:58;7.60;;;4.00;;
4122;SDS011;2075;51.062;6.920;2023-06-19T11:20:47;4.40;;;4.03;;
4122;SDS011;2075;51.062;6.920;2023-06-19T11:23:46;10.60;;;4.50;;
4122;SDS011;2075;51.062;6.920;2023-06-19T11:26:42;5.90;;;4.30;;
4122;SDS011;2075;51.062;6.920;2023-06-19T11:29:33;5.70;;;5.20;;
4122;SDS011;2075;51.062;6.920;2023-06-19T11:32:29;4.90;;;4.00;;
4122;SDS011;2075;51.062;6.920;2023-06-19T11:35:31;5.67;;;3.80;;
4122;SDS011;2075;51.062;6.920;2023-06-19T11:38:27;4.57;;;4.20;;
4122;SDS011;2075;51.062;6.920;2023-06-19T11:41:24;4.67;;;3.97;;
4122;SDS011;2075;51.062;6.920;2023-06-19T11:44:14;4.50;;;3.70;;
4122;SDS011;2075;51.062;6.920;2023-06-19T11:47:01;4.80;;;4.40;;
4122;SDS011;2075;51.062;6.920;2023-06-19T11:49:53;3.60;;;3.40;;
4122;SDS011;2075;51.062;6.920;2023-06-19T11:52:49;6.13;;;4.30;;
4122;SDS011;2075;51.062;6.920;2023-06-19T11:55:36;4.60;;;4.30;;
4122;SDS011;2075;51.062;6.920;2023-06-19T11:58:22;4.83;;;4.17;;
4122;SDS011;2075;51.062;6.920;2023-06-19T12:01:08;4.90;;;4.40;;
4122;SDS011;2075;51.062;6.920;2023-06-19T12:04:02;9.63;;;3.93;;
4122;SDS011;2075;51.062;6.920;2023-06-19T12:06:54;5.00;;;3.83;;
4122;SDS011;2075;51.062;6.920;2023-06-19T12:09:34;6.30;;;5.20;;
4122;SDS011;2075;51.062;6.920;2023-06-19T12:15:04;8.50;;;4.40;;
4122;SDS011;2075;51.062;6.920;2023-06-19T12:17:57;4.73;;;4.10;;
4122;SDS011;2075;51.062;6.920;2023-06-19T12:20:43;4.87;;;4.47;;
4122;SDS011;2075;51.062;6.920;2023-06-19T12:23:39;4.03;;;3.73;;
4122;SDS011;2075;51.062;6.920;2023-06-19T12:26:28;4.90;;;4.50;;
4122;SDS011;2075;51.062;6.920;2023-06-19T12:29:15;7.90;;;5.03;;
4122;SDS011;2075;51.062;6.920;2023-06-19T12:32:01;5.17;;;3.83;;
4122;SDS011;2075;51.062;6.920;2023-06-19T12:34:51;6.13;;;4.40;;
4122;SDS011;2075;51.062;6.920;2023-06-19T12:37:53;5.00;;;4.30;;
4122;SDS011;2075;51.062;6.920;2023-06-19T12:40:44;4.43;;;4.13;;
4122;SDS011;2075;51.062;6.920;2023-06-19T12:43:32;4.63;;;4.20;;
4122;SDS011;2075;51.062;6.920;2023-06-19T12:46:18;3.93;;;3.73;;
4122;SDS011;2075;51.062;6.920;2023-06-19T12:49:05;5.20;;;4.77;;
4122;SDS011;2075;51.062;6.920;2023-06-19T12:51:51;5.50;;;5.00;;
4122;SDS011;2075;51.062;6.920;2023-06-19T12:54:36;7.20;;;5.17;;
4122;SDS011;2075;51.062;6.920;2023-06-19T12:57:24;4.70;;;4.20;;
4122;SDS011;2075;51.062;6.920;2023-06-19T13:00:11;8.33;;;3.90;;
4122;SDS011;2075;51.062;6.920;2023-06-19T13:02:58;10.27;;;3.93;;
4122;SDS011;2075;51.062;6.920;2023-06-19T13:05:44;4.93;;;4.10;;
4122;SDS011;2075;51.062;6.920;2023-06-19T13:08:30;5.53;;;3.70;;
4122;SDS011;2075;51.062;6.920;2023-06-19T13:11:15;6.83;;;4.63;;
4122;SDS011;2075;51.062;6.920;2023-06-19T13:14:02;4.03;;;3.80;;
4122;SDS011;2075;51.062;6.920;2023-06-19T13:16:48;4.97;;;4.57;;
4122;SDS011;2075;51.062;6.920;2023-06-19T13:19:33;4.10;;;3.63;;
4122;SDS011;2075;51.062;6.920;2023-06-19T13:22:19;14.50;;;4.13;;
4122;SDS011;2075;51.062;6.920;2023-06-19T13:25:05;6.33;;;4.20;;
4122;SDS011;2075;51.062;6.920;2023-06-19T13:27:50;5.40;;;4.10;;
4122;SDS011;2075;51.062;6.920;2023-06-19T13:30:37;4.83;;;4.40;;
4122;SDS011;2075;51.062;6.920;2023-06-19T13:33:23;5.60;;;4.10;;
4122;SDS011;2075;51.062;6.920;2023-06-19T13:36:08;5.50;;;4.57;;
4122;SDS011;2075;51.062;6.920;2023-06-19T13:38:54;7.00;;;4.73;;
4122;SDS011;2075;51.062;6.920;2023-06-19T13:41:39;7.90;;;4.63;;
4122;SDS011;2075;51.062;6.920;2023-06-19T13:44:25;5.53;;;4.10;;
4122;SDS011;2075;51.062;6.920;2023-06-19T13:47:12;5.03;;;3.40;;
4122;SDS011;2075;51.062;6.920;2023-06-19T13:50:03;10.40;;;4.37;;
4122;SDS011;2075;51.062;6.920;2023-06-19T13:52:50;11.17;;;4.23;;
4122;SDS011;2075;51.062;6.920;2023-06-19T13:55:36;6.97;;;4.07;;
4122;SDS011;2075;51.062;6.920;2023-06-19T13:58:22;5.10;;;3.80;;
4122;SDS011;2075;51.062;6.920;2023-06-19T14:01:07;5.30;;;4.10;;
4122;SDS011;2075;51.062;6.920;2023-06-19T14:03:55;4.37;;;4.07;;
4122;SDS011;2075;51.062;6.920;2023-06-19T14:06:41;3.90;;;3.37;;
4122;SDS011;2075;51.062;6.920;2023-06-19T14:09:27;4.23;;;3.93;;
4122;SDS011;2075;51.062;6.920;2023-06-19T14:12:14;3.80;;;3.50;;
4122;SDS011;2075;51.062;6.920;2023-06-19T14:14:59;8.30;;;5.33;;
4122;SDS011;2075;51.062;6.920;2023-06-19T14:17:45;4.53;;;3.93;;
4122;SDS011;2075;51.062;6.920;2023-06-19T14:20:32;9.17;;;4.27;;
4122;SDS011;2075;51.062;6.920;2023-06-19T14:23:18;6.70;;;4.60;;
4122;SDS011;2075;51.062;6.920;2023-06-19T14:26:03;6.03;;;3.60;;
4122;SDS011;2075;51.062;6.920;2023-06-19T14:28:48;3.80;;;3.43;;
4122;SDS011;2075;51.062;6.920;2023-06-19T14:31:39;4.80;;;4.40;;
4122;SDS011;2075;51.062;6.920;2023-06-19T14:34:28;19.30;;;4.17;;
4122;SDS011;2075;51.062;6.920;2023-06-19T14:37:16;4.20;;;3.90;;
4122;SDS011;2075;51.062;6.920;2023-06-19T14:42:51;4.37;;;4.00;;
4122;SDS011;2075;51.062;6.920;2023-06-19T14:45:43;4.07;;;3.77;;
4122;SDS011;2075;51.062;6.920;2023-06-19T14:48:29;6.33;;;4.43;;
4122;SDS011;2075;51.062;6.920;2023-06-19T14:51:15;4.50;;;4.07;;
4122;SDS011;2075;51.062;6.920;2023-06-19T14:54:02;17.17;;;7.70;;
4122;SDS011;2075;51.062;6.920;2023-06-19T14:56:48;7.93;;;4.97;;
4122;SDS011;2075;51.062;6.920;2023-06-19T14:59:35;8.07;;;4.53;;
4122;SDS011;2075;51.062;6.920;2023-06-19T15:02:20;9.30;;;4.80;;
4122;SDS011;2075;51.062;6.920;2023-06-19T15:05:06;4.23;;;3.90;;
4122;SDS011;2075;51.062;6.920;2023-06-19T15:07:52;4.30;;;3.90;;
4122;SDS011;2075;51.062;6.920;2023-06-19T15:10:39;6.03;;;3.77;;
4122;SDS011;2075;51.062;6.920;2023-06-19T15:13:27;5.23;;;3.90;;
4122;SDS011;2075;51.062;6.920;2023-06-19T15:16:12;4.13;;;3.83;;
4122;SDS011;2075;51.062;6.920;2023-06-19T15:18:58;3.77;;;3.43;;
4122;SDS011;2075;51.062;6.920;2023-06-19T15:21:44;4.03;;;3.70;;
4122;SDS011;2075;51.062;6.920;2023-06-19T15:24:30;4.50;;;4.20;;
4122;SDS011;2075;51.062;6.920;2023-06-19T15:27:18;5.83;;;3.87;;
4122;SDS011;2075;51.062;6.920;2023-06-19T15:30:05;4.03;;;3.73;;
4122;SDS011;2075;51.062;6.920;2023-06-19T15:32:51;4.10;;;3.80;;
4122;SDS011;2075;51.062;6.920;2023-06-19T15:35:37;4.73;;;3.90;;
4122;SDS011;2075;51.062;6.920;2023-06-19T15:38:23;6.47;;;4.97;;
4122;SDS011;2075;51.062;6.920;2023-06-19T15:41:09;4.00;;;3.70;;
4122;SDS011;2075;51.062;6.920;2023-06-19T15:43:56;5.27;;;3.80;;
4122;SDS011;2075;51.062;6.920;2023-06-19T15:46:42;3.40;;;3.23;;
4122;SDS011;2075;51.062;6.920;2023-06-19T15:49:28;4.17;;;3.87;;
4122;SDS011;2075;51.062;6.920;2023-06-19T15:52:13;5.10;;;3.70;;
4122;SDS011;2075;51.062;6.920;2023-06-19T15:54:59;5.33;;;3.57;;
4122;SDS011;2075;51.062;6.920;2023-06-19T15:57:44;4.50;;;4.07;;
4122;SDS011;2075;51.062;6.920;2023-06-19T16:00:31;6.60;;;3.43;;
4122;SDS011;2075;51.062;6.920;2023-06-19T16:03:17;8.63;;;3.80;;
4122;SDS011;2075;51.062;6.920;2023-06-19T16:06:02;4.07;;;3.77;;
4122;SDS011;2075;51.062;6.920;2023-06-19T16:08:47;4.00;;;3.67;;
4122;SDS011;2075;51.062;6.920;2023-06-19T16:11:35;4.73;;;3.70;;
4122;SDS011;2075;51.062;6.920;2023-06-19T16:14:21;6.00;;;3.97;;
4122;SDS011;2075;51.062;6.920;2023-06-19T16:17:08;3.77;;;3.47;;
4122;SDS011;2075;51.062;6.920;2023-06-19T16:19:53;3.90;;;3.70;;
4122;SDS011;2075;51.062;6.920;2023-06-19T16:22:39;3.83;;;3.63;;
4122;SDS011;2075;51.062;6.920;2023-06-19T16:25:24;5.43;;;3.70;;
4122;SDS011;2075;51.062;6.920;2023-06-19T16:28:10;5.73;;;3.80;;
4122;SDS011;2075;51.062;6.920;2023-06-19T16:30:55;4.90;;;3.90;;
4122;SDS011;2075;51.062;6.920;2023-06-19T16:33:42;4.60;;;4.20;;
4122;SDS011;2075;51.062;6.920;2023-06-19T16:36:28;4.20;;;3.90;;
4122;SDS011;2075;51.062;6.920;2023-06-19T16:39:13;6.97;;;4.37;;
4122;SDS011;2075;51.062;6.920;2023-06-19T16:42:01;4.30;;;3.87;;
4122;SDS011;2075;51.062;6.920;2023-06-19T16:44:47;4.37;;;3.93;;
4122;SDS011;2075;51.062;6.920;2023-06-19T16:47:32;4.40;;;4.00;;
4122;SDS011;2075;51.062;6.920;2023-06-19T16:50:19;5.57;;;3.57;;
4122;SDS011;2075;51.062;6.920;2023-06-19T16:53:05;4.63;;;4.17;;
4122;SDS011;2075;51.062;6.920;2023-06-19T16:55:50;4.60;;;4.20;;
4122;SDS011;2075;51.062;6.920;2023-06-19T16:58:39;9.40;;;4.90;;
4122;SDS011;2075;51.062;6.920;2023-06-19T17:01:24;7.63;;;4.30;;
4122;SDS011;2075;51.062;6.920;2023-06-19T17:04:10;5.27;;;4.10;;
4122;SDS011;2075;51.062;6.920;2023-06-19T17:06:58;4.00;;;3.67;;
4122;SDS011;2075;51.062;6.920;2023-06-19T17:09:44;4.43;;;4.13;;
4122;SDS011;2075;51.062;6.920;2023-06-19T17:12:31;6.33;;;4.23;;
4122;SDS011;2075;51.062;6.920;2023-06-19T17:15:16;4.10;;;3.80;;
4122;SDS011;2075;51.062;6.920;2023-06-19T17:18:02;4.20;;;3.67;;
4122;SDS011;2075;51.062;6.920;2023-06-19T17:20:50;4.03;;;3.73;;
4122;SDS011;2075;51.062;6.920;2023-06-19T17:23:36;8.93;;;3.90;;
4122;SDS011;2075;51.062;6.920;2023-06-19T17:26:22;6.40;;;4.50;;
4122;SDS011;2075;51.062;6.920;2023-06-19T17:29:07;6.40;;;3.93;;
4122;SDS011;2075;51.062;6.920;2023-06-19T17:31:53;8.70;;;4.47;;